createdAt,value
2023-02-01T00:00:01.373Z,69.41
2023-02-01T00:01:13.449Z,69.67
2023-02-01T00:02:15.382Z,69.77
2023-02-01T00:03:19.968Z,69.49
2023-02-01T00:04:22.343Z,69.84
2023-02-01T00:05:25.269Z,69.90
2023-02-01T00:06:27.172Z,69.88
2023-02-01T00:07:30.077Z,69.45
2023-02-01T00:08:31.994Z,69.83
2023-02-01T00:09:34.948Z,69.66
2023-02-01T00:10:38.216Z,69.45
2023-02-01T00:11:41.725Z,69.90
2023-02-01T00:12:44.049Z,69.33
2023-02-01T00:13:46.947Z,69.12
2023-02-01T00:14:49.414Z,69.44
2023-02-01T00:15:52.296Z,69.96
2023-02-01T00:16:54.331Z,69.89
2023-02-01T00:17:57.382Z,69.60
2023-02-01T00:19:01.560Z,70.01
2023-02-01T00:20:05.181Z,69.77
2023-02-01T00:21:07.176Z,70.01
2023-02-01T00:22:10.162Z,70.40
2023-02-01T00:23:12.159Z,70.40
2023-02-01T00:24:15.601Z,70.06
2023-02-01T00:25:17.513Z,70.11
2023-02-01T00:26:27.854Z,70.57
2023-02-01T00:27:29.764Z,70.18
2023-02-01T00:28:32.932Z,70.37
2023-02-01T00:29:35.063Z,70.61
2023-02-01T00:30:38.053Z,70.44
2023-02-01T00:31:40.386Z,70.19
2023-02-01T00:32:43.709Z,70.19
2023-02-01T00:33:48.576Z,70.46
2023-02-01T00:34:51.840Z,70.89
2023-02-01T00:35:58.155Z,70.68
2023-02-01T00:37:01.276Z,71.15
2023-02-01T00:38:03.600Z,70.60
2023-02-01T00:39:06.605Z,71.18
2023-02-01T00:40:09.840Z,71.03
2023-02-01T00:41:14.699Z,70.15
2023-02-01T00:42:18.972Z,71.21
2023-02-01T00:43:21.925Z,71.41
2023-02-01T00:44:25.157Z,71.17
2023-02-01T00:45:27.412Z,71.32
2023-02-01T00:46:30.727Z,71.68
2023-02-01T00:47:32.794Z,71.93
2023-02-01T00:48:36.031Z,72.32
2023-02-01T00:49:37.936Z,72.47
2023-02-01T00:50:43.547Z,72.40
2023-02-01T00:51:45.536Z,71.62
2023-02-01T00:52:48.413Z,72.11
2023-02-01T00:53:51.193Z,72.26
2023-02-01T00:54:54.159Z,72.22
2023-02-01T00:55:57.254Z,72.00
2023-02-01T00:57:00.203Z,72.05
2023-02-01T00:58:03.491Z,72.47
2023-02-01T00:59:06.361Z,72.88
2023-02-01T01:00:09.723Z,71.96
2023-02-01T01:01:17.152Z,72.83
2023-02-01T01:02:19.273Z,72.74
2023-02-01T01:03:22.218Z,72.34
2023-02-01T01:04:24.207Z,73.10
2023-02-01T01:05:28.628Z,72.44
2023-02-01T01:06:33.367Z,72.42
2023-02-01T01:07:36.333Z,73.03
2023-02-01T01:08:39.686Z,72.77
2023-02-01T01:09:42.729Z,72.64
2023-02-01T01:10:44.820Z,73.02
2023-02-01T01:11:47.733Z,72.28
2023-02-01T01:12:49.722Z,72.51
2023-02-01T01:13:55.968Z,72.86
2023-02-01T01:14:57.938Z,73.14
2023-02-01T01:16:03.750Z,72.84
2023-02-01T01:17:07.033Z,72.94
2023-02-01T01:18:09.781Z,73.23
2023-02-01T01:19:12.983Z,73.35
2023-02-01T01:20:14.990Z,73.05
2023-02-01T01:21:18.921Z,72.33
2023-02-01T01:22:20.865Z,72.76
2023-02-01T01:23:23.861Z,72.69
2023-02-01T01:24:26.195Z,73.69
2023-02-01T01:25:29.383Z,73.50
2023-02-01T01:26:31.424Z,74.00
2023-02-01T01:27:34.394Z,73.24
2023-02-01T01:28:36.778Z,73.24
2023-02-01T01:29:41.054Z,73.27
2023-02-01T01:30:43.087Z,73.10
2023-02-01T01:31:46.036Z,73.73
2023-02-01T01:32:47.999Z,74.09
2023-02-01T01:33:52.551Z,73.15
2023-02-01T01:34:54.502Z,73.70
2023-02-01T01:35:57.604Z,73.38
2023-02-01T01:37:00.535Z,73.83
2023-02-01T01:38:03.141Z,73.99
2023-02-01T01:39:06.237Z,74.01
2023-02-01T01:40:10.878Z,73.79
2023-02-01T01:41:17.481Z,73.40
2023-02-01T01:42:19.524Z,73.91
2023-02-01T01:43:23.615Z,74.26
2023-02-01T01:45:00.267Z,73.92
2023-02-01T01:46:03.689Z,73.99
2023-02-01T01:47:06.731Z,74.11
2023-02-01T01:48:14.924Z,73.99
2023-02-01T01:49:22.530Z,74.49
2023-02-01T01:50:29.944Z,73.77
2023-02-01T01:51:37.485Z,73.65
2023-02-01T01:52:41.609Z,74.73
2023-02-01T01:53:50.461Z,74.64
2023-02-01T01:54:54.623Z,73.75
2023-02-01T01:55:58.485Z,73.86
2023-02-01T01:57:05.611Z,73.96
2023-02-01T01:58:12.425Z,74.15
2023-02-01T01:59:14.529Z,74.54
2023-02-01T02:00:22.163Z,74.50
2023-02-01T02:01:26.317Z,73.90
2023-02-01T02:02:29.318Z,74.42
2023-02-01T02:03:35.099Z,74.56
2023-02-01T02:04:38.808Z,74.22
2023-02-01T02:05:41.055Z,74.22
2023-02-01T02:06:49.908Z,73.95
2023-02-01T02:07:54.792Z,74.16
2023-02-01T02:08:57.748Z,74.56
2023-02-01T02:10:01.438Z,74.36
2023-02-01T02:11:04.869Z,75.09
2023-02-01T02:12:06.978Z,74.78
2023-02-01T02:13:10.202Z,74.40
2023-02-01T02:14:16.606Z,74.81
2023-02-01T02:15:20.125Z,74.80
2023-02-01T02:16:43.778Z,74.92
2023-02-01T02:17:56.777Z,74.86
2023-02-01T02:19:21.340Z,74.97
2023-02-01T02:20:40.942Z,74.75
2023-02-01T02:22:04.437Z,75.28
2023-02-01T02:23:42.814Z,74.59
2023-02-01T02:25:07.519Z,75.03
2023-02-01T02:26:32.239Z,74.94
2023-02-01T02:27:50.919Z,74.41
2023-02-01T02:29:28.233Z,74.76
2023-02-01T02:30:57.975Z,75.08
2023-02-01T02:32:25.463Z,74.16
2023-02-01T02:33:50.743Z,74.70
2023-02-01T02:34:57.247Z,75.20
2023-02-01T02:36:03.375Z,74.65
2023-02-01T02:37:16.700Z,74.58
2023-02-01T02:38:30.406Z,75.05
2023-02-01T02:39:44.626Z,75.03
2023-02-01T02:40:53.415Z,75.16
2023-02-01T02:42:20.779Z,74.42
2023-02-01T02:43:45.082Z,74.62
2023-02-01T02:45:10.679Z,74.25
2023-02-01T02:46:40.638Z,74.67
2023-02-01T02:47:48.065Z,74.91
2023-02-01T02:48:56.205Z,74.26
2023-02-01T02:50:27.761Z,74.70
2023-02-01T02:51:50.481Z,74.88
2023-02-01T02:53:17.453Z,74.93
2023-02-01T02:54:41.917Z,74.16
2023-02-01T02:55:46.207Z,74.76
2023-02-01T02:57:08.519Z,74.11
2023-02-01T02:58:32.303Z,74.79
2023-02-01T02:59:55.309Z,74.82
2023-02-01T03:01:16.198Z,74.72
2023-02-01T03:02:37.692Z,74.04
2023-02-01T03:03:59.065Z,73.98
2023-02-01T03:05:03.490Z,74.82
2023-02-01T03:06:16.931Z,74.19
2023-02-01T03:08:01.699Z,73.79
2023-02-01T03:09:09.851Z,74.18
2023-02-01T03:10:20.221Z,74.83
2023-02-01T03:11:22.453Z,74.53
2023-02-01T03:12:43.464Z,74.40
2023-02-01T03:13:52.828Z,74.75
2023-02-01T03:15:01.776Z,74.33
2023-02-01T03:16:10.511Z,74.58
2023-02-01T03:17:16.796Z,74.73
2023-02-01T03:18:26.737Z,73.93
2023-02-01T03:19:32.737Z,74.77
2023-02-01T03:20:40.556Z,73.91
2023-02-01T03:21:46.396Z,74.61
2023-02-01T03:22:52.328Z,74.44
2023-02-01T03:23:58.866Z,74.60
2023-02-01T03:25:04.809Z,74.16
2023-02-01T03:26:11.740Z,74.27
2023-02-01T03:27:21.345Z,73.84
2023-02-01T03:28:25.822Z,74.03
2023-02-01T03:29:35.891Z,74.62
2023-02-01T03:30:43.074Z,73.94
2023-02-01T03:31:46.950Z,74.33
2023-02-01T03:33:01.005Z,73.97
2023-02-01T03:34:08.878Z,73.99
2023-02-01T03:35:12.194Z,74.03
2023-02-01T03:36:26.274Z,73.83
2023-02-01T03:37:29.211Z,74.14
2023-02-01T03:38:36.966Z,74.17
2023-02-01T03:39:44.956Z,74.29
2023-02-01T03:40:52.664Z,74.14
2023-02-01T03:41:58.283Z,73.72
2023-02-01T03:43:03.319Z,74.21
2023-02-01T03:44:15.608Z,74.10
2023-02-01T03:45:24.023Z,73.76
2023-02-01T03:46:34.726Z,73.38
2023-02-01T03:47:43.412Z,73.27
2023-02-01T03:48:47.200Z,74.11
2023-02-01T03:49:53.755Z,73.58
2023-02-01T03:51:01.247Z,74.24
2023-02-01T03:52:07.281Z,73.86
2023-02-01T03:53:14.445Z,73.32
2023-02-01T03:54:20.204Z,74.26
2023-02-01T03:55:24.768Z,73.52
2023-02-01T03:56:30.475Z,73.78
2023-02-01T03:57:36.097Z,73.74
2023-02-01T03:58:39.548Z,73.85
2023-02-01T03:59:42.014Z,73.83
2023-02-01T04:00:48.319Z,73.64
2023-02-01T04:01:50.311Z,73.73
2023-02-01T04:02:54.695Z,73.19
2023-02-01T04:03:57.735Z,73.26
2023-02-01T04:05:00.810Z,73.78
2023-02-01T04:06:02.928Z,73.29
2023-02-01T04:07:07.929Z,73.79
2023-02-01T04:08:09.969Z,73.56
2023-02-01T04:09:12.951Z,73.54
2023-02-01T04:10:17.439Z,73.29
2023-02-01T04:11:21.717Z,73.44
2023-02-01T04:12:23.721Z,73.52
2023-02-01T04:13:26.775Z,73.22
2023-02-01T04:14:28.966Z,73.37
2023-02-01T04:15:32.043Z,73.27
2023-02-01T04:16:34.564Z,73.44
2023-02-01T04:18:38.419Z,73.67
2023-02-01T04:19:41.217Z,73.03
2023-02-01T04:20:44.010Z,73.41
2023-02-01T04:21:46.955Z,73.70
2023-02-01T04:22:50.233Z,73.68
2023-02-01T04:23:53.399Z,73.45
2023-02-01T04:24:55.362Z,73.64
2023-02-01T04:26:01.443Z,73.43
2023-02-01T04:27:03.823Z,73.70
2023-02-01T04:28:07.851Z,73.06
2023-02-01T04:29:10.246Z,72.87
2023-02-01T04:30:14.604Z,72.57
2023-02-01T04:31:17.612Z,72.99
2023-02-01T04:32:21.826Z,73.15
2023-02-01T04:33:24.231Z,72.96
2023-02-01T04:34:27.426Z,72.66
2023-02-01T04:35:29.374Z,72.96
2023-02-01T04:36:32.309Z,72.64
2023-02-01T04:37:34.325Z,73.19
2023-02-01T04:38:38.665Z,72.88
2023-02-01T04:39:40.604Z,73.45
2023-02-01T04:40:43.391Z,72.79
2023-02-01T04:41:45.304Z,72.65
2023-02-01T04:42:48.279Z,72.66
2023-02-01T04:43:52.059Z,72.80
2023-02-01T04:44:57.480Z,72.76
2023-02-01T04:45:59.468Z,72.73
2023-02-01T04:47:02.334Z,72.95
2023-02-01T04:48:04.789Z,73.38
2023-02-01T04:49:07.755Z,73.07
2023-02-01T04:50:11.477Z,73.14
2023-02-01T04:51:16.059Z,73.35
2023-02-01T04:52:18.160Z,73.48
2023-02-01T04:53:21.031Z,72.86
2023-02-01T04:54:24.306Z,73.24
2023-02-01T04:55:27.177Z,72.82
2023-02-01T04:56:29.098Z,73.36
2023-02-01T04:57:32.042Z,73.28
2023-02-01T04:58:34.065Z,72.67
2023-02-01T04:59:37.248Z,72.95
2023-02-01T05:00:39.279Z,72.47
2023-02-01T05:01:42.222Z,72.61
2023-02-01T05:02:44.168Z,73.23
2023-02-01T05:03:47.025Z,72.72
2023-02-01T05:04:49.121Z,72.89
2023-02-01T05:05:54.472Z,72.72
2023-02-01T05:06:56.353Z,73.03
2023-02-01T05:07:59.211Z,72.77
2023-02-01T05:09:01.124Z,72.59
2023-02-01T05:10:05.876Z,72.33
2023-02-01T05:11:28.043Z,72.56
2023-02-01T05:12:48.293Z,72.29
2023-02-01T05:13:50.244Z,72.79
2023-02-01T05:14:53.128Z,72.72
2023-02-01T05:15:55.062Z,72.34
2023-02-01T05:16:58.064Z,72.96
2023-02-01T05:17:59.979Z,72.19
2023-02-01T05:19:03.289Z,72.67
2023-02-01T05:20:06.506Z,72.41
2023-02-01T05:21:09.613Z,72.19
2023-02-01T05:22:11.523Z,72.43
2023-02-01T05:23:14.491Z,72.72
2023-02-01T05:24:21.512Z,72.17
2023-02-01T05:25:25.755Z,72.07
2023-02-01T05:26:27.782Z,71.81
2023-02-01T05:27:31.887Z,72.54
2023-02-01T05:28:33.815Z,71.85
2023-02-01T05:29:36.755Z,72.56
2023-02-01T05:30:41.873Z,72.49
2023-02-01T05:31:46.978Z,72.07
2023-02-01T05:32:51.079Z,72.55
2023-02-01T05:33:53.983Z,72.76
2023-02-01T05:34:55.936Z,71.65
2023-02-01T05:35:58.778Z,71.85
2023-02-01T05:37:00.704Z,71.92
2023-02-01T05:38:03.596Z,72.28
2023-02-01T05:39:05.527Z,72.29
2023-02-01T05:40:09.614Z,72.20
2023-02-01T05:41:12.887Z,72.15
2023-02-01T05:42:15.931Z,71.98
2023-02-01T05:43:17.895Z,72.64
2023-02-01T05:44:20.728Z,71.74
2023-02-01T05:45:22.593Z,72.20
2023-02-01T05:46:25.731Z,72.81
2023-02-01T05:47:27.857Z,72.59
2023-02-01T05:48:30.890Z,72.49
2023-02-01T05:49:33.873Z,72.16
2023-02-01T05:50:36.754Z,71.93
2023-02-01T05:51:45.271Z,72.26
2023-02-01T05:52:47.168Z,72.62
2023-02-01T05:53:50.077Z,72.46
2023-02-01T05:54:53.622Z,72.13
2023-02-01T05:55:56.483Z,72.50
2023-02-01T05:56:59.969Z,72.52
2023-02-01T05:58:02.884Z,72.60
2023-02-01T05:59:04.780Z,72.30
2023-02-01T06:00:09.301Z,72.19
2023-02-01T06:01:14.543Z,72.38
2023-02-01T06:02:17.869Z,72.11
2023-02-01T06:03:19.786Z,72.17
2023-02-01T06:04:22.666Z,72.69
2023-02-01T06:05:24.599Z,72.11
2023-02-01T06:06:27.499Z,71.84
2023-02-01T06:07:29.819Z,71.94
2023-02-01T06:08:32.866Z,72.50
2023-02-01T06:09:36.042Z,71.87
2023-02-01T06:10:37.961Z,72.48
2023-02-01T06:11:42.297Z,72.00
2023-02-01T06:12:47.367Z,72.10
2023-02-01T06:13:49.274Z,72.94
2023-02-01T06:14:52.248Z,72.71
2023-02-01T06:15:54.409Z,72.00
2023-02-01T06:16:57.715Z,72.56
2023-02-01T06:18:00.621Z,72.69
2023-02-01T06:19:03.465Z,72.62
2023-02-01T06:20:07.600Z,72.47
2023-02-01T06:21:10.914Z,72.81
2023-02-01T06:22:12.781Z,72.56
2023-02-01T06:23:15.660Z,72.09
2023-02-01T06:24:17.873Z,72.01
2023-02-01T06:25:22.332Z,71.97
2023-02-01T06:26:24.370Z,72.50
2023-02-01T06:27:27.698Z,72.25
2023-02-01T06:28:32.238Z,71.84
2023-02-01T06:29:35.167Z,71.94
2023-02-01T06:30:37.109Z,72.02
2023-02-01T06:31:40.838Z,72.43
2023-02-01T06:32:43.107Z,71.77
2023-02-01T06:33:46.812Z,72.16
2023-02-01T06:34:48.751Z,71.91
2023-02-01T06:35:59.336Z,72.12
2023-02-01T06:37:02.273Z,72.37
2023-02-01T06:38:04.261Z,72.46
2023-02-01T06:39:07.164Z,71.47
2023-02-01T06:40:10.503Z,71.64
2023-02-01T06:41:13.558Z,72.01
2023-02-01T06:42:15.727Z,72.13
2023-02-01T06:43:18.631Z,72.52
2023-02-01T06:44:21.949Z,72.13
2023-02-01T06:45:24.816Z,71.97
2023-02-01T06:46:26.763Z,71.96
2023-02-01T06:47:29.699Z,71.81
2023-02-01T06:48:32.028Z,71.81
2023-02-01T06:49:34.945Z,72.24
2023-02-01T06:50:37.839Z,72.15
2023-02-01T06:51:39.845Z,72.36
2023-02-01T06:52:42.761Z,72.34
2023-02-01T06:53:44.794Z,72.46
2023-02-01T06:54:47.656Z,72.00
2023-02-01T06:55:54.038Z,71.81
2023-02-01T06:56:56.971Z,72.04
2023-02-01T06:57:58.906Z,71.95
2023-02-01T06:59:02.310Z,72.62
2023-02-01T07:00:06.997Z,72.13
2023-02-01T07:01:11.801Z,72.13
2023-02-01T07:02:13.726Z,71.84
2023-02-01T07:03:16.748Z,72.15
2023-02-01T07:04:19.643Z,72.35
2023-02-01T07:05:22.154Z,72.45
2023-02-01T07:06:25.045Z,72.37
2023-02-01T07:07:26.939Z,72.41
2023-02-01T07:08:30.320Z,72.25
2023-02-01T07:09:32.435Z,72.10
2023-02-01T07:10:36.548Z,72.68
2023-02-01T07:11:42.175Z,72.18
2023-02-01T07:12:44.078Z,72.08
2023-02-01T07:13:47.817Z,71.48
2023-02-01T07:14:49.706Z,71.68
2023-02-01T07:15:53.985Z,71.27
2023-02-01T07:16:56.026Z,71.86
2023-02-01T07:17:59.147Z,71.34
2023-02-01T07:19:02.653Z,71.46
2023-02-01T07:20:05.541Z,71.72
2023-02-01T07:21:08.731Z,71.61
2023-02-01T07:22:10.703Z,71.53
2023-02-01T07:23:13.634Z,71.06
2023-02-01T07:24:16.644Z,71.27
2023-02-01T07:25:18.510Z,71.00
2023-02-01T07:26:22.001Z,71.04
2023-02-01T07:27:25.870Z,70.85
2023-02-01T07:28:30.776Z,71.12
2023-02-01T07:29:33.887Z,71.93
2023-02-01T07:30:35.854Z,71.38
2023-02-01T07:31:40.579Z,71.44
2023-02-01T07:32:43.257Z,70.86
2023-02-01T07:33:46.259Z,70.88
2023-02-01T07:34:49.164Z,71.19
2023-02-01T07:35:51.537Z,70.31
2023-02-01T07:36:54.426Z,71.04
2023-02-01T07:37:58.529Z,70.99
2023-02-01T07:39:01.467Z,71.07
2023-02-01T07:40:03.780Z,71.19
2023-02-01T07:41:07.641Z,70.67
2023-02-01T07:42:10.530Z,71.03
2023-02-01T07:43:14.053Z,71.11
2023-02-01T07:44:16.093Z,70.92
2023-02-01T07:45:21.614Z,70.62
2023-02-01T07:46:25.017Z,70.70
2023-02-01T07:47:29.327Z,70.80
2023-02-01T07:48:32.063Z,70.83
2023-02-01T07:49:34.970Z,71.08
2023-02-01T07:50:36.913Z,70.61
2023-02-01T07:51:39.851Z,71.06
2023-02-01T07:52:42.031Z,70.72
2023-02-01T07:53:45.994Z,70.64
2023-02-01T07:54:47.997Z,70.53
2023-02-01T07:55:50.913Z,70.56
2023-02-01T07:56:53.792Z,70.89
2023-02-01T07:57:59.091Z,70.86
2023-02-01T07:59:02.444Z,70.47
2023-02-01T08:00:24.909Z,70.58
2023-02-01T08:01:30.513Z,71.06
2023-02-01T08:02:33.959Z,70.63
2023-02-01T08:03:37.068Z,70.33
2023-02-01T08:04:39.938Z,70.37
2023-02-01T08:05:42.838Z,69.92
2023-02-01T08:06:45.788Z,69.77
2023-02-01T08:07:50.005Z,69.93
2023-02-01T08:08:53.887Z,70.09
2023-02-01T08:09:55.807Z,69.82
2023-02-01T08:11:02.216Z,70.48
2023-02-01T08:12:05.682Z,70.39
2023-02-01T08:13:07.674Z,70.33
2023-02-01T08:14:10.673Z,69.88
2023-02-01T08:15:12.650Z,70.12
2023-02-01T08:16:17.349Z,69.68
2023-02-01T08:17:19.336Z,69.98
2023-02-01T08:18:23.666Z,69.58
2023-02-01T08:19:26.586Z,69.40
2023-02-01T08:20:30.077Z,69.90
2023-02-01T08:21:37.605Z,69.78
2023-02-01T08:22:39.689Z,69.67
2023-02-01T08:23:43.869Z,69.39
2023-02-01T08:24:49.804Z,70.09
2023-02-01T08:25:52.604Z,70.18
2023-02-01T08:26:55.520Z,69.28
2023-02-01T08:27:57.508Z,69.17
2023-02-01T08:29:02.536Z,68.96
2023-02-01T08:30:08.128Z,69.46
2023-02-01T08:31:15.722Z,69.91
2023-02-01T08:32:18.943Z,69.45
2023-02-01T08:33:23.030Z,69.97
2023-02-01T08:34:26.338Z,69.08
2023-02-01T08:35:42.468Z,69.21
2023-02-01T08:36:46.546Z,69.34
2023-02-01T08:37:49.440Z,68.93
2023-02-01T08:38:51.452Z,69.72
2023-02-01T08:39:54.378Z,69.56
2023-02-01T08:40:56.335Z,69.55
2023-02-01T08:42:16.620Z,68.76
2023-02-01T08:43:20.787Z,68.67
2023-02-01T08:44:23.688Z,69.32
2023-02-01T08:45:29.530Z,69.20
2023-02-01T08:46:32.409Z,69.25
2023-02-01T08:47:34.503Z,68.63
2023-02-01T08:48:39.521Z,69.21
2023-02-01T08:49:41.461Z,68.77
2023-02-01T08:50:44.984Z,68.78
2023-02-01T08:51:48.065Z,69.12
2023-02-01T08:52:50.974Z,68.40
2023-02-01T08:53:54.020Z,69.35
2023-02-01T08:54:55.969Z,68.31
2023-02-01T08:55:58.919Z,69.39
2023-02-01T08:57:00.916Z,69.16
2023-02-01T08:58:03.863Z,68.43
2023-02-01T08:59:06.748Z,68.53
2023-02-01T09:00:12.646Z,68.25
2023-02-01T09:01:17.847Z,68.32
2023-02-01T09:02:19.909Z,69.00
2023-02-01T09:03:23.390Z,68.40
2023-02-01T09:04:26.657Z,68.10
2023-02-01T09:05:43.959Z,68.45
2023-02-01T09:06:50.613Z,68.08
2023-02-01T09:07:52.600Z,68.33
2023-02-01T09:08:55.513Z,68.46
2023-02-01T09:10:01.043Z,67.99
2023-02-01T09:11:05.899Z,68.73
2023-02-01T09:12:07.949Z,68.85
2023-02-01T09:13:12.074Z,68.43
2023-02-01T09:14:15.121Z,68.96
2023-02-01T09:15:18.026Z,68.43
2023-02-01T09:16:20.977Z,68.11
2023-02-01T09:17:24.747Z,68.53
2023-02-01T09:18:27.660Z,68.49
2023-02-01T09:19:31.973Z,69.17
2023-02-01T09:20:34.956Z,68.87
2023-02-01T09:21:38.330Z,68.72
2023-02-01T09:22:41.643Z,68.94
2023-02-01T09:23:44.634Z,68.69
2023-02-01T09:24:46.701Z,69.25
2023-02-01T09:25:51.222Z,69.12
2023-02-01T09:26:53.675Z,68.72
2023-02-01T09:27:56.616Z,69.12
2023-02-01T09:28:58.554Z,69.24
2023-02-01T09:30:01.562Z,69.03
2023-02-01T09:31:04.124Z,69.22
2023-02-01T09:32:07.517Z,68.70
2023-02-01T09:33:10.521Z,68.35
2023-02-01T09:34:12.489Z,68.43
2023-02-01T09:35:16.854Z,68.71
2023-02-01T09:36:20.657Z,68.48
2023-02-01T09:37:23.578Z,68.98
2023-02-01T09:38:26.717Z,69.45
2023-02-01T09:39:31.007Z,69.19
2023-02-01T09:40:36.442Z,68.95
2023-02-01T09:41:51.842Z,68.76
2023-02-01T09:43:20.097Z,69.29
2023-02-01T09:44:52.822Z,68.77
2023-02-01T09:46:05.162Z,68.95
2023-02-01T09:47:14.051Z,68.35
2023-02-01T09:48:21.480Z,68.36
2023-02-01T09:49:28.751Z,69.01
2023-02-01T09:50:38.329Z,69.00
2023-02-01T09:51:46.344Z,68.98
2023-02-01T09:52:57.590Z,68.97
2023-02-01T09:54:05.849Z,69.03
2023-02-01T09:55:16.117Z,69.26
2023-02-01T09:56:25.584Z,68.69
2023-02-01T09:57:38.907Z,69.53
2023-02-01T09:58:46.709Z,68.98
2023-02-01T09:59:54.713Z,69.45
2023-02-01T10:01:00.414Z,69.01
2023-02-01T10:02:05.903Z,69.55
2023-02-01T10:03:14.114Z,68.82
2023-02-01T10:04:18.475Z,69.25
2023-02-01T10:05:27.533Z,69.75
2023-02-01T10:06:46.965Z,69.31
2023-02-01T10:08:02.970Z,69.18
2023-02-01T10:09:19.148Z,69.24
2023-02-01T10:10:31.053Z,69.12
2023-02-01T10:11:50.360Z,68.99
2023-02-01T10:13:16.244Z,69.13
2023-02-01T10:14:50.465Z,69.63
2023-02-01T10:16:10.286Z,69.54
2023-02-01T10:17:23.005Z,69.25
2023-02-01T10:18:59.383Z,69.26
2023-02-01T10:20:14.515Z,69.17
2023-02-01T10:21:28.989Z,69.17
2023-02-01T10:23:04.897Z,68.84
2023-02-01T10:24:18.276Z,69.13
2023-02-01T10:25:25.889Z,69.19
2023-02-01T10:26:35.629Z,69.14
2023-02-01T10:27:41.350Z,69.56
2023-02-01T10:28:46.065Z,69.77
2023-02-01T10:29:53.643Z,69.24
2023-02-01T10:31:00.475Z,69.62
2023-02-01T10:32:04.559Z,69.08
2023-02-01T10:33:18.069Z,69.06
2023-02-01T10:34:25.713Z,69.14
2023-02-01T10:35:31.659Z,68.89
2023-02-01T10:36:37.732Z,69.04
2023-02-01T10:37:44.153Z,69.12
2023-02-01T10:38:48.316Z,69.65
2023-02-01T10:39:50.993Z,68.98
2023-02-01T10:40:55.261Z,69.42
2023-02-01T10:41:57.524Z,69.51
2023-02-01T10:43:03.782Z,69.05
2023-02-01T10:44:12.766Z,69.27
2023-02-01T10:45:19.566Z,69.10
2023-02-01T10:46:21.984Z,69.19
2023-02-01T10:47:25.375Z,69.34
2023-02-01T10:48:28.424Z,69.08
2023-02-01T10:49:40.808Z,68.88
2023-02-01T10:50:51.499Z,68.90
2023-02-01T10:51:59.060Z,69.54
2023-02-01T10:53:07.599Z,69.25
2023-02-01T10:54:16.283Z,69.38
2023-02-01T10:55:30.209Z,69.57
2023-02-01T10:56:33.413Z,69.50
2023-02-01T10:57:35.414Z,69.15
2023-02-01T10:58:45.911Z,69.01
2023-02-01T10:59:48.842Z,68.86
2023-02-01T11:00:56.325Z,69.42
2023-02-01T11:02:03.955Z,69.34
2023-02-01T11:03:23.149Z,69.39
2023-02-01T11:04:28.397Z,69.33
2023-02-01T11:05:45.918Z,69.03
2023-02-01T11:06:51.404Z,69.52
2023-02-01T11:07:56.317Z,69.01
2023-02-01T11:09:05.576Z,69.89
2023-02-01T11:10:36.930Z,69.41
2023-02-01T11:11:54.917Z,69.25
2023-02-01T11:12:58.597Z,69.62
2023-02-01T11:14:03.420Z,69.38
2023-02-01T11:15:20.002Z,69.00
2023-02-01T11:16:23.021Z,69.03
2023-02-01T11:17:34.303Z,69.31
2023-02-01T11:18:37.982Z,69.16
2023-02-01T11:19:41.301Z,69.32
2023-02-01T11:20:44.806Z,69.01
2023-02-01T11:21:51.558Z,69.19
2023-02-01T11:22:56.437Z,69.15
2023-02-01T11:24:05.075Z,69.26
2023-02-01T11:25:12.572Z,69.31
2023-02-01T11:26:20.885Z,69.03
2023-02-01T11:27:27.785Z,68.77
2023-02-01T11:28:34.635Z,68.84
2023-02-01T11:29:39.976Z,68.89
2023-02-01T11:30:45.111Z,69.24
2023-02-01T11:31:48.509Z,69.53
2023-02-01T11:32:51.729Z,68.84
2023-02-01T11:34:00.385Z,69.32
2023-02-01T11:35:07.525Z,69.31
2023-02-01T11:36:13.513Z,69.03
2023-02-01T11:37:21.370Z,69.37
2023-02-01T11:38:30.070Z,69.22
2023-02-01T11:39:36.667Z,69.18
2023-02-01T11:40:39.617Z,69.53
2023-02-01T11:41:58.466Z,69.69
2023-02-01T11:43:08.153Z,69.48
2023-02-01T11:44:23.645Z,69.55
2023-02-01T11:45:29.452Z,69.62
2023-02-01T11:46:33.486Z,69.52
2023-02-01T11:47:42.582Z,69.66
2023-02-01T11:48:45.529Z,69.79
2023-02-01T11:49:49.754Z,69.43
2023-02-01T11:51:05.555Z,69.59
2023-02-01T11:52:18.885Z,69.85
2023-02-01T11:53:31.883Z,70.47
2023-02-01T11:55:01.474Z,70.16
2023-02-01T11:56:18.087Z,69.92
2023-02-01T11:57:36.762Z,69.84
2023-02-01T11:58:58.032Z,70.03
2023-02-01T12:00:17.526Z,69.91
2023-02-01T12:01:48.659Z,69.54
2023-02-01T12:03:31.524Z,69.94
2023-02-01T12:04:58.521Z,70.39
2023-02-01T12:06:07.818Z,69.72
2023-02-01T12:07:18.659Z,69.86
2023-02-01T12:08:33.835Z,70.09
2023-02-01T12:09:48.972Z,69.87
2023-02-01T12:11:06.110Z,69.80
2023-02-01T12:12:19.801Z,69.76
2023-02-01T12:13:38.363Z,69.81
2023-02-01T12:15:06.281Z,70.05
2023-02-01T12:16:20.858Z,70.17
2023-02-01T12:17:55.203Z,70.17
2023-02-01T12:19:21.799Z,69.31
2023-02-01T12:20:38.955Z,69.65
2023-02-01T12:22:03.573Z,69.85
2023-02-01T12:23:22.721Z,69.69
2023-02-01T12:24:45.940Z,69.42
2023-02-01T12:26:10.406Z,69.52
2023-02-01T12:27:35.089Z,69.21
2023-02-01T12:29:06.274Z,70.10
2023-02-01T12:30:36.713Z,69.85
2023-02-01T12:32:04.722Z,68.89
2023-02-01T12:33:20.047Z,69.04
2023-02-01T12:34:49.663Z,69.46
2023-02-01T12:36:06.548Z,69.25
2023-02-01T12:37:22.156Z,69.06
2023-02-01T12:38:40.469Z,69.51
2023-02-01T12:39:48.860Z,69.15
2023-02-01T12:41:10.177Z,68.83
2023-02-01T12:42:18.518Z,68.78
2023-02-01T12:43:26.910Z,68.63
2023-02-01T12:44:37.165Z,68.97
2023-02-01T12:45:44.069Z,68.58
2023-02-01T12:46:50.303Z,68.03
2023-02-01T12:47:58.381Z,68.46
2023-02-01T12:49:03.672Z,68.66
2023-02-01T12:50:17.354Z,67.98
2023-02-01T12:51:25.345Z,68.19
2023-02-01T12:52:37.387Z,68.37
2023-02-01T12:53:48.074Z,68.10
2023-02-01T12:54:56.839Z,67.89
2023-02-01T12:56:07.924Z,68.04
2023-02-01T12:57:18.133Z,68.33
2023-02-01T12:58:24.336Z,68.10
2023-02-01T12:59:32.885Z,68.06
2023-02-01T13:00:41.918Z,67.86
2023-02-01T13:01:51.833Z,67.64
2023-02-01T13:03:01.462Z,68.19
2023-02-01T13:04:13.007Z,68.32
2023-02-01T13:05:19.729Z,68.05
2023-02-01T13:06:28.708Z,68.42
2023-02-01T13:07:37.126Z,68.59
2023-02-01T13:08:46.488Z,68.09
2023-02-01T13:09:54.113Z,68.52
2023-02-01T13:11:05.697Z,68.54
2023-02-01T13:12:14.217Z,68.52
2023-02-01T13:13:22.754Z,68.40
2023-02-01T13:14:34.860Z,68.36
2023-02-01T13:15:43.062Z,69.04
2023-02-01T13:16:49.693Z,68.97
2023-02-01T13:17:54.888Z,68.84
2023-02-01T13:19:06.185Z,68.98
2023-02-01T13:20:21.644Z,69.46
2023-02-01T13:21:28.337Z,69.08
2023-02-01T13:22:34.143Z,69.65
2023-02-01T13:23:39.856Z,69.56
2023-02-01T13:24:46.283Z,69.60
2023-02-01T13:25:51.555Z,69.39
2023-02-01T13:26:57.653Z,69.61
2023-02-01T13:28:06.527Z,69.54
2023-02-01T13:29:13.630Z,69.89
2023-02-01T13:30:21.280Z,69.48
2023-02-01T13:31:45.843Z,69.78
2023-02-01T13:33:53.060Z,70.08
2023-02-01T13:35:19.549Z,72.27
2023-02-01T13:36:55.842Z,69.39
2023-02-01T13:38:11.089Z,69.18
2023-02-01T13:39:53.125Z,69.39
2023-02-01T13:41:09.407Z,69.13
2023-02-01T13:42:20.721Z,69.37
2023-02-01T13:43:27.393Z,69.80
2023-02-01T13:44:35.655Z,69.84
2023-02-01T13:45:46.353Z,70.07
2023-02-01T13:46:52.571Z,70.13
2023-02-01T13:47:58.879Z,70.19
2023-02-01T13:49:04.662Z,69.83
2023-02-01T13:50:21.556Z,69.73
2023-02-01T13:51:39.195Z,69.54
2023-02-01T13:52:44.924Z,70.09
2023-02-01T13:53:50.596Z,70.18
2023-02-01T13:55:04.161Z,70.59
2023-02-01T13:56:13.614Z,69.74
2023-02-01T13:57:38.803Z,69.67
2023-02-01T13:58:43.807Z,70.08
2023-02-01T13:59:56.772Z,70.60
2023-02-01T14:01:35.088Z,69.66
2023-02-01T14:02:52.960Z,70.40
2023-02-01T14:03:57.357Z,70.30
2023-02-01T14:04:59.679Z,69.63
2023-02-01T14:06:05.351Z,69.99
2023-02-01T14:07:20.669Z,70.09
2023-02-01T14:08:25.112Z,69.97
2023-02-01T14:09:38.131Z,70.02
2023-02-01T14:10:51.907Z,69.77
2023-02-01T14:11:58.742Z,70.35
2023-02-01T14:13:13.548Z,70.07
2023-02-01T14:14:41.580Z,69.96
2023-02-01T14:16:10.778Z,69.52
2023-02-01T14:17:38.435Z,69.71
2023-02-01T14:19:02.255Z,70.07
2023-02-01T14:20:41.405Z,70.17
2023-02-01T14:21:50.105Z,69.16
2023-02-01T14:22:52.157Z,69.42
2023-02-01T14:24:01.619Z,69.69
2023-02-01T14:25:04.010Z,69.36
2023-02-01T14:26:14.844Z,69.78
2023-02-01T14:27:22.490Z,69.24
2023-02-01T14:28:29.761Z,69.06
2023-02-01T14:29:34.504Z,69.18